createdAt,value
2023-01-23T00:00:41.673Z,5.49
2023-01-23T00:03:16.873Z,5.54
2023-01-23T00:06:11.235Z,5.69
2023-01-23T00:08:50.613Z,5.81
2023-01-23T00:11:28.935Z,5.58
2023-01-23T00:14:09.033Z,5.55
2023-01-23T00:16:45.673Z,5.56
2023-01-23T00:19:18.467Z,5.47
2023-01-23T00:21:50.090Z,5.50
2023-01-23T00:24:32.069Z,5.39
2023-01-23T00:27:06.998Z,5.30
2023-01-23T00:29:34.327Z,5.28
2023-01-23T00:32:09.570Z,5.23
2023-01-23T00:34:42.395Z,5.32
2023-01-23T00:37:21.598Z,5.34
2023-01-23T00:40:00.035Z,5.23
2023-01-23T00:42:31.505Z,5.14
2023-01-23T00:45:04.806Z,5.06
2023-01-23T00:47:34.724Z,5.06
2023-01-23T00:50:04.800Z,5.04
2023-01-23T00:52:38.007Z,5.15
2023-01-23T00:55:08.622Z,5.31
2023-01-23T00:57:35.353Z,5.35
2023-01-23T01:00:04.425Z,5.31
2023-01-23T01:03:20.974Z,5.15
2023-01-23T01:05:54.441Z,5.21
2023-01-23T01:08:24.075Z,5.11
2023-01-23T01:10:58.181Z,5.03
2023-01-23T01:16:24.588Z,4.75
2023-01-23T01:18:54.260Z,4.74
2023-01-23T01:21:37.625Z,5.00
2023-01-23T01:24:05.293Z,5.04
2023-01-23T01:26:45.792Z,4.92
2023-01-23T01:29:14.514Z,4.87
2023-01-23T01:31:41.258Z,4.93
2023-01-23T01:34:17.618Z,4.81
2023-01-23T01:37:06.230Z,4.82
2023-01-23T01:39:41.261Z,4.76
2023-01-23T01:42:07.991Z,4.69
2023-01-23T01:45:13.766Z,4.70
2023-01-23T01:47:40.583Z,4.97
2023-01-23T01:50:12.433Z,5.11
2023-01-23T01:52:39.733Z,5.16
2023-01-23T01:55:13.239Z,5.08
2023-01-23T01:57:50.157Z,4.89
2023-01-23T02:00:20.024Z,4.87
2023-01-23T02:02:52.699Z,5.02
2023-01-23T02:05:25.834Z,4.91
2023-01-23T02:07:58.602Z,5.15
2023-01-23T02:10:28.340Z,5.19
2023-01-23T02:13:20.462Z,5.12
2023-01-23T02:16:13.052Z,5.26
2023-01-23T02:18:49.752Z,5.08
2023-01-23T02:21:26.020Z,5.09
2023-01-23T02:24:35.115Z,5.12
2023-01-23T02:27:17.599Z,5.09
2023-01-23T02:30:00.877Z,5.08
2023-01-23T02:32:41.672Z,5.12
2023-01-23T02:35:48.395Z,4.96
2023-01-23T02:41:04.254Z,5.01
2023-01-23T02:43:39.174Z,5.12
2023-01-23T02:46:08.463Z,5.21
2023-01-23T02:51:38.760Z,5.54
2023-01-23T02:56:53.668Z,5.18
2023-01-23T02:59:43.763Z,5.44
2023-01-23T03:02:10.941Z,5.38
2023-01-23T03:04:49.875Z,5.08
2023-01-23T03:07:16.566Z,5.10
2023-01-23T03:09:46.378Z,5.03
2023-01-23T03:12:49.691Z,5.02
2023-01-23T03:15:23.604Z,4.93
2023-01-23T03:20:55.600Z,5.58
2023-01-23T03:23:22.351Z,6.09
2023-01-23T03:26:10.689Z,6.07
2023-01-23T03:29:09.748Z,5.75
2023-01-23T03:31:36.862Z,5.39
2023-01-23T03:34:05.991Z,5.07
2023-01-23T03:36:33.295Z,5.11
2023-01-23T03:39:34.871Z,4.88
2023-01-23T03:42:16.684Z,5.26
2023-01-23T03:44:53.234Z,5.51
2023-01-23T03:47:28.748Z,5.68
2023-01-23T03:50:23.342Z,5.97
2023-01-23T03:53:05.861Z,6.76
2023-01-23T03:55:43.444Z,6.64
2023-01-23T04:04:03.953Z,5.77
2023-01-23T04:06:45.598Z,5.50
2023-01-23T04:09:13.175Z,5.38
2023-01-23T04:11:40.001Z,5.73
2023-01-23T04:14:08.980Z,5.52
2023-01-23T04:16:40.223Z,5.27
2023-01-23T04:19:36.255Z,5.31
2023-01-23T04:22:12.726Z,5.17
2023-01-23T04:24:50.749Z,4.88
2023-01-23T04:27:20.540Z,4.61
2023-01-23T04:30:00.802Z,4.64
2023-01-23T04:32:49.687Z,4.91
2023-01-23T04:38:31.565Z,4.86
2023-01-23T04:41:28.864Z,4.68
2023-01-23T04:44:23.174Z,4.65
2023-01-23T04:49:47.895Z,4.53
2023-01-23T04:52:18.133Z,4.70
2023-01-23T04:54:53.604Z,5.11
2023-01-23T04:57:43.315Z,4.81
2023-01-23T05:00:17.890Z,5.15
2023-01-23T05:03:05.629Z,5.06
2023-01-23T05:05:45.439Z,5.09
2023-01-23T05:08:21.982Z,4.88
2023-01-23T05:10:51.291Z,4.36
2023-01-23T05:13:20.822Z,4.55
2023-01-23T05:16:18.746Z,4.47
2023-01-23T05:18:45.559Z,4.24
2023-01-23T05:21:37.987Z,4.14
2023-01-23T05:24:19.716Z,3.87
2023-01-23T05:26:47.379Z,4.44
2023-01-23T05:29:25.303Z,4.13
2023-01-23T05:32:01.453Z,4.53
2023-01-23T05:34:40.153Z,4.08
2023-01-23T05:37:29.497Z,4.35
2023-01-23T05:42:44.967Z,3.77
2023-01-23T05:45:15.795Z,3.55
2023-01-23T05:47:43.946Z,3.36
2023-01-23T05:50:16.972Z,3.28
2023-01-23T05:52:45.968Z,3.48
2023-01-23T05:55:13.007Z,3.15
2023-01-23T05:57:51.546Z,3.26
2023-01-23T06:00:26.458Z,3.47
2023-01-23T06:03:08.124Z,3.57
2023-01-23T06:05:37.648Z,3.76
2023-01-23T06:08:13.590Z,3.80
2023-01-23T06:10:49.006Z,3.63
2023-01-23T06:13:23.467Z,3.55
2023-01-23T06:16:03.649Z,3.57
2023-01-23T06:18:37.554Z,3.67
2023-01-23T06:21:17.924Z,3.74
2023-01-23T06:23:47.628Z,3.50
2023-01-23T06:26:16.633Z,3.29
2023-01-23T06:28:49.430Z,2.93
2023-01-23T06:31:19.254Z,2.92
2023-01-23T06:33:54.000Z,2.82
2023-01-23T06:36:30.789Z,2.69
2023-01-23T06:39:06.842Z,2.91
2023-01-23T06:41:54.722Z,2.72
2023-01-23T06:44:21.563Z,2.81
2023-01-23T06:46:49.579Z,2.57
2023-01-23T06:49:25.214Z,2.39
2023-01-23T06:51:54.465Z,2.50
2023-01-23T06:54:25.230Z,2.67
2023-01-23T06:56:52.000Z,2.56
2023-01-23T07:02:12.359Z,2.58
2023-01-23T07:04:43.177Z,2.35
2023-01-23T07:07:21.469Z,2.33
2023-01-23T07:09:48.287Z,2.28
2023-01-23T07:12:15.317Z,2.57
2023-01-23T07:17:42.955Z,2.81
2023-01-23T07:20:10.629Z,2.72
2023-01-23T07:22:43.572Z,2.46
2023-01-23T07:25:10.752Z,2.64
2023-01-23T07:27:37.571Z,2.60
2023-01-23T07:30:07.976Z,2.59
2023-01-23T07:32:51.368Z,2.77
2023-01-23T07:35:23.791Z,2.86
2023-01-23T07:38:45.656Z,2.84
2023-01-23T07:40:59.061Z,2.98
2023-01-23T07:43:44.823Z,2.75
2023-01-23T07:46:20.152Z,2.65
2023-01-23T07:48:48.977Z,2.53
2023-01-23T07:51:26.926Z,2.70
2023-01-23T07:53:55.414Z,2.86
2023-01-23T07:56:29.921Z,3.70
2023-01-23T07:59:04.204Z,4.99
2023-01-23T08:01:37.025Z,4.63
2023-01-23T08:04:08.114Z,4.20
2023-01-23T08:06:41.215Z,3.95
2023-01-23T08:09:10.977Z,3.45
2023-01-23T08:11:40.634Z,3.09
2023-01-23T08:14:17.776Z,2.84
2023-01-23T08:17:02.017Z,2.81
2023-01-23T08:19:35.252Z,2.53
2023-01-23T08:22:35.553Z,2.57
2023-01-23T08:25:08.578Z,2.48
2023-01-23T08:27:39.194Z,2.67
2023-01-23T08:30:12.105Z,2.67
2023-01-23T08:35:13.941Z,2.61
2023-01-23T08:37:46.571Z,2.63
2023-01-23T08:40:14.111Z,2.64
2023-01-23T08:42:42.590Z,2.75
2023-01-23T08:45:15.633Z,2.82
2023-01-23T08:47:42.576Z,3.06
2023-01-23T08:50:36.321Z,3.15
2023-01-23T08:53:03.141Z,3.00
2023-01-23T08:55:49.087Z,2.81
2023-01-23T08:58:42.692Z,2.93
2023-01-23T09:01:24.110Z,2.73
2023-01-23T09:03:57.305Z,3.14
2023-01-23T09:06:24.352Z,3.24
2023-01-23T09:09:01.815Z,3.34
2023-01-23T09:11:37.631Z,3.37
2023-01-23T09:14:12.958Z,3.47
2023-01-23T09:16:51.748Z,3.44
2023-01-23T09:19:18.671Z,3.75
2023-01-23T09:21:49.046Z,3.67
2023-01-23T09:24:42.994Z,3.60
2023-01-23T09:27:12.919Z,3.62
2023-01-23T09:29:45.687Z,3.49
2023-01-23T09:32:30.647Z,3.47
2023-01-23T09:35:00.346Z,3.66
2023-01-23T09:37:50.714Z,3.62
2023-01-23T09:40:19.867Z,3.60
2023-01-23T09:42:54.525Z,3.73
2023-01-23T09:45:28.109Z,3.56
2023-01-23T09:51:15.266Z,4.05
2023-01-23T09:53:47.927Z,3.84
2023-01-23T09:56:37.421Z,3.89
2023-01-23T09:59:36.591Z,4.07
2023-01-23T10:02:17.112Z,3.86
2023-01-23T10:04:52.179Z,3.73
2023-01-23T10:07:48.117Z,3.73
2023-01-23T10:10:45.447Z,3.66
2023-01-23T10:16:44.988Z,3.33
2023-01-23T10:19:42.382Z,3.32
2023-01-23T10:22:37.882Z,3.20
2023-01-23T10:25:25.655Z,3.25
2023-01-23T10:27:57.284Z,3.23
2023-01-23T10:30:26.927Z,3.25
2023-01-23T10:33:34.687Z,3.23
2023-01-23T10:36:42.113Z,3.07
2023-01-23T10:39:29.510Z,3.04
2023-01-23T10:44:40.121Z,2.92
2023-01-23T10:47:34.517Z,2.95
2023-01-23T10:50:09.697Z,2.80
2023-01-23T10:52:55.300Z,2.99
2023-01-23T10:55:30.515Z,2.99
2023-01-23T10:58:12.511Z,2.89
2023-01-23T11:03:35.854Z,2.90
2023-01-23T11:09:08.100Z,2.88
2023-01-23T11:11:36.535Z,2.92
2023-01-23T11:14:32.249Z,3.04
2023-01-23T11:17:49.350Z,3.04
2023-01-23T11:20:43.177Z,3.29
2023-01-23T11:23:49.503Z,3.26
2023-01-23T11:26:42.948Z,3.47
2023-01-23T11:29:24.871Z,3.65
2023-01-23T11:32:08.298Z,3.78
2023-01-23T11:34:53.727Z,3.62
2023-01-23T11:37:38.466Z,3.44
2023-01-23T11:40:29.463Z,3.32
2023-01-23T11:42:59.836Z,3.55
2023-01-23T11:46:07.386Z,4.01
2023-01-23T11:52:00.063Z,5.20
2023-01-23T11:54:57.273Z,4.63
2023-01-23T11:58:08.158Z,4.48
2023-01-23T12:00:53.418Z,4.16
2023-01-23T12:03:54.809Z,4.00
2023-01-23T12:06:27.741Z,4.07
2023-01-23T12:09:21.970Z,4.08
2023-01-23T12:12:19.768Z,4.07
2023-01-23T12:15:22.863Z,4.28
2023-01-23T12:21:07.277Z,4.58
2023-01-23T12:24:07.235Z,4.87
2023-01-23T12:26:41.348Z,4.68
2023-01-23T12:29:22.454Z,4.68
2023-01-23T12:31:52.444Z,4.56
2023-01-23T12:34:31.937Z,4.67
2023-01-23T12:37:30.095Z,4.45
2023-01-23T12:40:08.596Z,4.63
2023-01-23T12:43:11.046Z,4.77
2023-01-23T12:45:55.764Z,5.67
2023-01-23T12:49:04.999Z,6.00
2023-01-23T12:51:46.143Z,5.74
2023-01-23T12:54:36.273Z,5.86
2023-01-23T12:57:13.734Z,6.27
2023-01-23T12:59:43.504Z,6.30
2023-01-23T13:02:40.572Z,6.41
2023-01-23T13:05:21.667Z,6.83
2023-01-23T13:08:10.581Z,7.34
2023-01-23T13:11:31.817Z,7.74
2023-01-23T13:14:10.536Z,8.24
2023-01-23T13:16:49.150Z,8.31
2023-01-23T13:19:50.560Z,8.34
2023-01-23T13:22:32.541Z,8.87
2023-01-23T13:25:18.655Z,9.28
2023-01-23T13:28:44.028Z,9.23
2023-01-23T13:31:40.855Z,8.85
2023-01-23T13:35:05.715Z,8.94
2023-01-23T13:37:51.680Z,9.17
2023-01-23T13:40:29.858Z,9.22
2023-01-23T13:43:28.273Z,9.45
2023-01-23T13:45:59.202Z,9.65
2023-01-23T14:22:06.112Z,10.36
2023-01-23T14:25:05.717Z,10.31
2023-01-23T14:27:52.232Z,10.50
2023-01-23T14:30:46.119Z,10.35
2023-01-23T14:33:25.814Z,10.46
2023-01-23T14:35:57.476Z,10.62
2023-01-23T14:38:37.750Z,10.59
2023-01-23T14:41:08.111Z,10.71
2023-01-23T14:43:51.795Z,10.64
2023-01-23T14:47:18.660Z,10.55
2023-01-23T14:49:49.961Z,10.40
2023-01-23T14:52:28.811Z,10.63
2023-01-23T14:55:07.715Z,10.62
2023-01-23T14:57:37.294Z,10.56
2023-01-23T15:00:06.093Z,10.55
2023-01-23T15:05:27.828Z,10.71
2023-01-23T15:08:03.827Z,10.54
2023-01-23T15:10:45.075Z,10.41
2023-01-23T15:13:42.375Z,10.61
2023-01-23T15:16:34.819Z,10.57
2023-01-23T15:19:20.056Z,10.64
2023-01-23T15:21:51.174Z,10.38
2023-01-23T15:24:37.087Z,10.03
2023-01-23T15:27:07.949Z,10.27
2023-01-23T15:29:53.899Z,10.43
2023-01-23T15:32:25.944Z,10.39
2023-01-23T15:35:02.348Z,10.41
2023-01-23T15:37:40.125Z,10.19
2023-01-23T15:40:19.888Z,10.11
2023-01-23T15:43:08.519Z,10.27
2023-01-23T15:45:35.574Z,10.39
2023-01-23T15:48:15.753Z,10.48
2023-01-23T15:50:42.699Z,10.61
2023-01-23T15:53:29.544Z,10.50
2023-01-23T15:56:19.006Z,10.35
2023-01-23T15:58:54.361Z,10.48
2023-01-23T16:01:24.536Z,10.83
2023-01-23T16:03:55.978Z,10.71
2023-01-23T16:06:26.535Z,10.39
2023-01-23T16:09:05.254Z,10.34
2023-01-23T16:11:38.826Z,10.15
2023-01-23T16:14:06.097Z,10.14
2023-01-23T16:16:38.142Z,10.22
2023-01-23T16:19:39.818Z,10.07
2023-01-23T16:22:24.877Z,10.02
2023-01-23T16:24:52.375Z,10.24
2023-01-23T16:27:30.118Z,10.37
2023-01-23T16:30:06.303Z,10.15
2023-01-23T16:32:50.293Z,9.96
2023-01-23T16:35:20.363Z,9.64
2023-01-23T16:37:54.302Z,9.62
2023-01-23T16:40:30.259Z,9.76
2023-01-23T16:42:59.787Z,10.11
2023-01-23T16:46:05.282Z,9.73
2023-01-23T16:48:37.615Z,9.91
2023-01-23T16:54:30.119Z,9.83
2023-01-23T16:57:28.592Z,9.98
2023-01-23T17:03:13.618Z,9.73
2023-01-23T17:06:07.002Z,9.95
2023-01-23T17:08:41.269Z,9.77
2023-01-23T17:11:47.526Z,9.43
2023-01-23T17:14:28.866Z,9.01
2023-01-23T17:17:01.900Z,9.02
2023-01-23T17:19:36.584Z,9.27
2023-01-23T17:22:22.725Z,8.62
2023-01-23T17:24:54.726Z,8.36
2023-01-23T17:27:21.862Z,8.29
2023-01-23T17:30:03.875Z,8.57
2023-01-23T17:32:35.922Z,8.87
2023-01-23T17:35:05.225Z,9.01
2023-01-23T17:37:56.103Z,9.13
2023-01-23T17:40:31.250Z,8.80
2023-01-23T17:43:25.561Z,8.70
2023-01-23T17:46:01.648Z,8.19
2023-01-23T17:48:36.951Z,8.22
2023-01-23T17:51:18.217Z,8.11
2023-01-23T17:54:03.066Z,7.60
2023-01-23T17:56:42.419Z,7.67
2023-01-23T17:59:09.408Z,7.53
2023-01-23T18:01:37.580Z,7.08
2023-01-23T18:04:22.345Z,7.00
2023-01-23T18:06:52.453Z,6.74
2023-01-23T18:09:27.662Z,6.82
2023-01-23T18:12:05.147Z,6.81
2023-01-23T18:15:14.070Z,6.71
2023-01-23T18:18:07.474Z,6.58
2023-01-23T18:20:51.408Z,6.71
2023-01-23T18:23:48.138Z,6.56
2023-01-23T18:26:51.959Z,6.45
2023-01-23T18:29:51.368Z,6.29
2023-01-23T18:33:09.385Z,6.14
2023-01-23T18:36:43.949Z,5.94
2023-01-23T18:39:59.269Z,6.02
2023-01-23T18:42:41.127Z,5.69
2023-01-23T18:48:45.389Z,5.96
2023-01-23T18:51:44.678Z,5.77
2023-01-23T18:54:33.176Z,5.82
2023-01-23T18:58:02.815Z,5.51
2023-01-23T19:01:29.386Z,5.45
2023-01-23T19:08:07.481Z,5.33
2023-01-23T19:10:56.404Z,5.22
2023-01-23T19:14:24.200Z,5.14
2023-01-23T19:17:20.014Z,5.35
2023-01-23T19:20:39.006Z,5.27
2023-01-23T19:29:41.049Z,5.33
2023-01-23T19:32:50.575Z,5.40
2023-01-23T19:36:00.567Z,5.42
2023-01-23T19:38:49.065Z,5.44
2023-01-23T19:42:08.943Z,5.60
2023-01-23T19:45:00.185Z,5.65
2023-01-23T19:47:41.942Z,5.46
2023-01-23T19:50:20.578Z,5.32
2023-01-23T19:52:49.001Z,5.34
2023-01-23T19:55:34.954Z,5.40
2023-01-23T19:58:13.988Z,5.35
2023-01-23T20:00:54.263Z,5.34
2023-01-23T20:03:30.803Z,5.14
2023-01-23T20:06:00.643Z,5.24
2023-01-23T20:08:50.900Z,5.16
2023-01-23T20:11:22.638Z,5.07
2023-01-23T20:14:01.364Z,4.96
2023-01-23T20:16:49.319Z,4.94
2023-01-23T20:19:28.443Z,4.97
2023-01-23T20:22:07.552Z,5.02
2023-01-23T20:24:39.654Z,5.03
2023-01-23T20:27:17.426Z,5.04
2023-01-23T20:29:59.329Z,5.08
2023-01-23T20:32:45.927Z,5.02
2023-01-23T20:35:29.523Z,5.06
2023-01-23T20:38:23.659Z,4.91
2023-01-23T20:41:02.359Z,4.90
2023-01-23T20:43:42.222Z,4.99
2023-01-23T20:46:24.800Z,5.02
2023-01-23T20:49:15.187Z,4.89
2023-01-23T20:52:23.823Z,4.69
2023-01-23T20:55:02.732Z,4.62
2023-01-23T21:00:38.708Z,4.81
2023-01-23T21:03:19.156Z,4.94
2023-01-23T21:05:51.580Z,4.63
2023-01-23T21:08:34.887Z,4.77
2023-01-23T21:11:10.301Z,4.75
2023-01-23T21:13:43.056Z,4.91
2023-01-23T21:16:31.091Z,4.78
2023-01-23T21:18:58.116Z,4.57
2023-01-23T21:21:31.425Z,4.62
2023-01-23T21:24:05.465Z,4.61
2023-01-23T21:26:38.185Z,4.74
2023-01-23T21:29:20.781Z,4.76
2023-01-23T21:32:09.637Z,4.89
2023-01-23T21:34:36.534Z,4.76
2023-01-23T21:37:23.049Z,4.72
2023-01-23T21:39:49.934Z,4.77
2023-01-23T21:42:16.741Z,4.55
2023-01-23T21:47:59.375Z,4.64
2023-01-23T21:50:27.670Z,4.73
2023-01-23T21:53:07.980Z,4.65
2023-01-23T21:55:37.026Z,4.69
2023-01-23T21:58:08.349Z,4.94
2023-01-23T22:00:57.230Z,4.74
2023-01-23T22:03:24.049Z,4.62
2023-01-23T22:05:51.501Z,4.83
2023-01-23T22:08:18.994Z,4.82
2023-01-23T22:11:08.427Z,4.71
2023-01-23T22:13:49.308Z,4.77
2023-01-23T22:16:50.729Z,4.58
2023-01-23T22:19:25.523Z,4.77
2023-01-23T22:21:57.450Z,4.60
2023-01-23T22:30:09.579Z,4.22
2023-01-23T22:32:52.531Z,4.46
2023-01-23T22:35:26.375Z,4.42
2023-01-23T22:37:54.071Z,4.25
2023-01-23T22:40:22.702Z,4.25
2023-01-23T22:43:07.059Z,4.48
2023-01-23T22:46:16.047Z,4.57
2023-01-23T22:48:48.965Z,4.40
2023-01-23T22:52:03.317Z,4.39
2023-01-23T22:54:37.715Z,4.43
2023-01-23T22:57:30.028Z,4.38
2023-01-23T23:00:24.945Z,4.23
2023-01-23T23:03:29.452Z,4.37
2023-01-23T23:06:15.145Z,4.44
2023-01-23T23:08:46.368Z,4.51
2023-01-23T23:11:41.191Z,4.33
2023-01-23T23:14:18.094Z,4.31
2023-01-23T23:17:07.480Z,4.36
2023-01-23T23:19:35.423Z,4.15
2023-01-23T23:22:07.570Z,4.11
2023-01-23T23:24:43.747Z,4.20
2023-01-23T23:27:13.707Z,4.26
2023-01-23T23:30:06.245Z,4.17
2023-01-23T23:35:24.514Z,4.28
2023-01-23T23:38:04.382Z,4.22
2023-01-23T23:40:37.311Z,4.14
2023-01-23T23:43:10.440Z,4.26
2023-01-23T23:46:01.886Z,4.35
2023-01-23T23:48:45.098Z,4.42
2023-01-23T23:51:19.881Z,4.34
2023-01-23T23:54:07.051Z,4.54
2023-01-23T23:56:48.315Z,4.60
2023-01-23T23:59:21.077Z,4.73
